WIDD/BTH METAR and TAF weather

Enter ICAO airport designator
Station Type Date Time Source
WIDD METAR 2023/01/30 10:30 UTC NOAA

WIDD 301030Z 02012KT 9000 BKN014 26/24 Q1010 NOSIG


Station Type Date Time Source
WIDD Decoded METAR 2023/01/30 10:30 UTC NOAA

Station name not available
Jan 30, 2023 - 05:30 AM EST / 2023.01.30 1030 UTC
Wind: from the NNE (020 degrees) at 14 MPH (12 KT):0
Visibility: 5 mile(s):0
Sky conditions: mostly cloudy
Temperature: 78 F (26 C)
Dew Point: 75 F (24 C)
Relative Humidity: 88%
Pressure (altimeter): 29.83 in. Hg (1010 hPa)
ob: WIDD 301030Z 02012KT 9000 BKN014 26/24 Q1010 NOSIG
cycle: 10

Station Type Date Time Source
WIDD TAF 2023/01/30 06:00 UTC NOAA

TAF WIDD 300500Z 3006/3106 01010KT 9000 -RA BKN014
BECMG 3009/3011 NSW

Example: see airport list